createdAt,value
2022-11-17T00:03:14.841Z,19.48
2022-11-17T00:08:13.859Z,21.98
2022-11-17T00:13:32.099Z,16.95
2022-11-17T00:18:48.636Z,15.45
2022-11-17T00:23:50.708Z,12.27
2022-11-17T00:28:54.647Z,11.87
2022-11-17T00:34:08.552Z,11.15
2022-11-17T00:39:07.813Z,10.32
2022-11-17T00:44:08.935Z,10.60
2022-11-17T00:49:08.911Z,10.80
2022-11-17T00:54:08.806Z,9.82
2022-11-17T00:59:08.931Z,10.88
2022-11-17T01:04:08.282Z,11.23
2022-11-17T01:09:10.985Z,11.02
2022-11-17T01:14:14.115Z,11.25
2022-11-17T01:24:13.547Z,9.52
2022-11-17T01:29:17.236Z,8.65
2022-11-17T01:34:16.068Z,8.50
2022-11-17T01:39:17.662Z,7.78
2022-11-17T01:44:53.595Z,8.50
2022-11-17T01:49:57.650Z,8.88
2022-11-17T01:54:58.546Z,9.18
2022-11-17T02:00:02.881Z,8.63
2022-11-17T02:05:18.031Z,9.13
2022-11-17T02:10:17.379Z,8.48
2022-11-17T02:15:16.356Z,8.50
2022-11-17T02:20:23.579Z,8.88
2022-11-17T02:25:39.840Z,9.05
2022-11-17T02:30:50.565Z,10.77
2022-11-17T02:35:57.391Z,13.35
2022-11-17T02:41:06.093Z,11.50
2022-11-17T02:46:09.864Z,10.93
2022-11-17T02:51:13.308Z,12.13
2022-11-17T02:56:12.132Z,16.02
2022-11-17T03:01:27.205Z,21.73
2022-11-17T03:06:36.039Z,22.13
2022-11-17T03:11:43.725Z,21.90
2022-11-17T03:16:52.711Z,26.58
2022-11-17T03:21:57.132Z,26.33
2022-11-17T03:27:01.850Z,28.70
2022-11-17T03:32:06.113Z,26.02
2022-11-17T03:37:08.274Z,26.13
2022-11-17T03:42:13.420Z,22.10
2022-11-17T03:47:14.565Z,27.50
2022-11-17T03:52:13.317Z,27.40
2022-11-17T03:57:15.932Z,23.70
2022-11-17T04:02:18.680Z,26.23
2022-11-17T04:07:17.550Z,26.30
2022-11-17T04:12:33.517Z,26.25
2022-11-17T04:17:33.573Z,26.40
2022-11-17T04:22:32.329Z,29.70
2022-11-17T04:27:48.338Z,30.73
2022-11-17T04:32:48.332Z,30.27
2022-11-17T04:37:47.025Z,35.97
2022-11-17T04:42:45.687Z,32.63
2022-11-17T04:47:44.397Z,31.23
2022-11-17T04:52:44.876Z,33.65
2022-11-17T04:57:46.251Z,29.80
2022-11-17T05:02:44.955Z,28.42
2022-11-17T05:07:45.260Z,18.40
2022-11-17T05:13:01.365Z,14.20
2022-11-17T05:18:01.166Z,12.30
2022-11-17T05:23:20.416Z,11.65
2022-11-17T05:28:19.505Z,11.27
2022-11-17T05:33:18.858Z,9.30
2022-11-17T05:38:18.943Z,11.30
2022-11-17T05:43:17.717Z,10.13
2022-11-17T05:48:16.688Z,10.10
2022-11-17T05:53:15.407Z,10.90
2022-11-17T05:58:21.171Z,8.18
2022-11-17T06:03:24.528Z,8.88
2022-11-17T06:08:23.272Z,10.98
2022-11-17T06:13:26.193Z,14.35
2022-11-17T06:18:28.591Z,9.48
2022-11-17T06:23:30.110Z,9.15
2022-11-17T06:28:32.348Z,8.88
2022-11-17T06:33:33.798Z,10.90
2022-11-17T06:38:34.466Z,8.43
2022-11-17T06:43:34.963Z,8.10
2022-11-17T06:48:36.749Z,9.00
2022-11-17T06:53:36.294Z,9.68
2022-11-17T06:58:38.470Z,8.02
2022-11-17T07:03:38.704Z,9.70
2022-11-17T07:08:38.537Z,7.95
2022-11-17T07:13:39.401Z,8.55
2022-11-17T07:18:38.949Z,7.03
2022-11-17T07:23:39.220Z,7.60
2022-11-17T07:28:39.635Z,9.63
2022-11-17T07:33:41.609Z,9.45
2022-11-17T07:38:45.683Z,47.33
2022-11-17T07:43:49.332Z,11.93
2022-11-17T07:48:48.139Z,8.32
2022-11-17T07:53:46.926Z,9.93
2022-11-17T07:58:45.713Z,10.60
2022-11-17T08:03:46.143Z,10.50
2022-11-17T08:08:44.951Z,13.15
2022-11-17T08:13:43.826Z,10.93
2022-11-17T08:18:45.952Z,9.90
2022-11-17T08:23:51.304Z,9.65
2022-11-17T08:28:53.709Z,9.70
2022-11-17T08:33:56.837Z,10.43
2022-11-17T08:38:57.099Z,10.40
2022-11-17T08:43:56.137Z,10.45
2022-11-17T08:48:57.151Z,10.23
2022-11-17T08:53:59.829Z,9.32
2022-11-17T08:58:58.544Z,8.63
2022-11-17T09:03:57.328Z,8.82
2022-11-17T09:08:57.827Z,6.53
2022-11-17T09:13:56.811Z,8.48
2022-11-17T09:18:57.123Z,15.98
2022-11-17T09:23:57.316Z,6.40
2022-11-17T09:28:56.023Z,6.47
2022-11-17T09:33:54.890Z,14.60
2022-11-17T09:38:53.748Z,6.18
2022-11-17T09:44:03.765Z,5.72
2022-11-17T09:49:11.999Z,4.97
2022-11-17T09:54:19.796Z,6.72
2022-11-17T09:59:23.028Z,6.78
2022-11-17T10:04:22.597Z,5.68
2022-11-17T10:09:36.233Z,7.60
2022-11-17T10:14:40.806Z,8.15
2022-11-17T10:19:39.932Z,7.10
2022-11-17T10:24:41.608Z,6.68
2022-11-17T10:29:41.703Z,9.98
2022-11-17T10:34:41.579Z,6.75
2022-11-17T10:39:42.781Z,10.20
2022-11-17T10:44:44.503Z,13.32
2022-11-17T10:49:43.244Z,10.80
2022-11-17T10:54:42.064Z,11.25
2022-11-17T10:59:49.676Z,8.30
2022-11-17T11:05:07.731Z,12.73
2022-11-17T11:10:15.947Z,15.05
2022-11-17T11:15:21.195Z,16.33
2022-11-17T11:20:22.774Z,20.30
2022-11-17T11:25:35.058Z,22.27
2022-11-17T11:30:39.770Z,21.37
2022-11-17T11:35:50.314Z,21.77
2022-11-17T11:41:06.317Z,21.20
2022-11-17T11:46:27.490Z,21.63
2022-11-17T11:51:30.778Z,19.10
2022-11-17T11:56:34.593Z,20.92
2022-11-17T12:01:45.355Z,15.88
2022-11-17T12:06:53.983Z,15.00
2022-11-17T12:12:03.967Z,13.90
2022-11-17T12:17:07.971Z,11.32
2022-11-17T12:22:06.773Z,9.23
2022-11-17T12:27:32.699Z,11.20
2022-11-17T12:32:55.457Z,8.05
2022-11-17T12:38:27.549Z,7.75
2022-11-17T12:43:27.822Z,9.20
2022-11-17T12:48:34.761Z,11.82
2022-11-17T12:53:53.658Z,8.05
2022-11-17T12:59:06.063Z,8.55
2022-11-17T13:04:13.327Z,7.65
2022-11-17T13:09:13.274Z,6.13
2022-11-17T13:14:14.515Z,5.82
2022-11-17T13:19:33.661Z,6.72
2022-11-17T13:24:35.213Z,4.93
2022-11-17T13:29:34.100Z,5.18
2022-11-17T13:34:34.271Z,5.63
2022-11-17T13:39:32.982Z,6.90
2022-11-17T13:44:34.180Z,15.65
2022-11-17T13:49:35.960Z,15.63
2022-11-17T13:54:37.133Z,7.20
2022-11-17T13:59:43.385Z,7.70
2022-11-17T14:05:24.139Z,6.85
2022-11-17T14:10:33.507Z,10.80
2022-11-17T14:15:35.429Z,9.00
2022-11-17T14:20:37.415Z,9.97
2022-11-17T14:25:40.643Z,9.63
2022-11-17T14:30:40.266Z,10.98
2022-11-17T14:35:40.875Z,13.27
2022-11-17T14:40:42.720Z,11.40
2022-11-17T14:45:44.606Z,10.83
2022-11-17T14:50:44.673Z,11.20
2022-11-17T14:55:44.402Z,8.55
2022-11-17T15:00:43.462Z,12.60
2022-11-17T15:05:47.450Z,19.60
2022-11-17T15:10:46.950Z,12.68
2022-11-17T15:15:45.880Z,13.82
2022-11-17T15:20:44.777Z,10.18
2022-11-17T15:25:45.063Z,9.93
2022-11-17T15:30:44.136Z,11.63
2022-11-17T15:35:43.063Z,9.38
2022-11-17T15:40:42.002Z,11.00
2022-11-17T15:45:45.214Z,8.57
2022-11-17T15:50:44.061Z,9.70
2022-11-17T15:55:42.884Z,11.15
2022-11-17T16:00:43.193Z,9.32
2022-11-17T16:05:42.140Z,10.10
2022-11-17T16:10:41.263Z,8.65
2022-11-17T16:15:40.146Z,10.30
2022-11-17T16:20:40.374Z,13.13
2022-11-17T16:25:41.340Z,10.68
2022-11-17T16:30:40.493Z,10.50
2022-11-17T16:35:46.247Z,10.43
2022-11-17T16:40:45.471Z,10.90
2022-11-17T16:45:46.171Z,10.52
2022-11-17T16:50:50.818Z,10.23
2022-11-17T16:55:55.973Z,11.63
2022-11-17T17:00:59.264Z,10.10
2022-11-17T17:11:09.449Z,12.07
2022-11-17T17:16:11.575Z,11.35
2022-11-17T17:21:22.101Z,11.30
2022-11-17T17:26:23.605Z,11.30
2022-11-17T17:31:25.186Z,11.40
2022-11-17T17:36:27.202Z,11.48
2022-11-17T17:41:29.542Z,11.77
2022-11-17T17:46:30.843Z,11.00
2022-11-17T17:51:32.138Z,11.57
2022-11-17T17:56:36.641Z,15.18
2022-11-17T18:01:40.875Z,13.75
2022-11-17T18:06:44.574Z,12.10
2022-11-17T18:11:47.987Z,11.68
2022-11-17T18:16:48.088Z,11.32
2022-11-17T18:21:52.747Z,10.93
2022-11-17T18:26:54.129Z,11.20
2022-11-17T18:31:54.198Z,11.23
2022-11-17T18:36:59.225Z,10.88
2022-11-17T18:41:58.380Z,10.50
2022-11-17T18:47:02.502Z,10.68
2022-11-17T18:52:04.678Z,9.00
2022-11-17T18:57:04.688Z,9.27
2022-11-17T19:02:03.447Z,8.20
2022-11-17T19:07:03.638Z,9.65
2022-11-17T19:12:02.377Z,9.43
2022-11-17T19:17:01.217Z,8.95
2022-11-17T19:22:02.167Z,8.45
2022-11-17T19:27:02.251Z,9.50
2022-11-17T19:32:01.005Z,7.88
2022-11-17T19:36:59.873Z,10.45
2022-11-17T19:42:00.650Z,10.30
2022-11-17T19:47:03.557Z,9.52
2022-11-17T19:52:02.286Z,8.85
2022-11-17T19:57:02.200Z,9.75
2022-11-17T20:02:03.297Z,10.07
2022-11-17T20:07:02.173Z,9.32
2022-11-17T20:12:01.011Z,15.70
2022-11-17T20:16:59.844Z,11.55
2022-11-17T20:22:01.112Z,13.65
2022-11-17T20:27:01.280Z,16.90
2022-11-17T20:32:00.130Z,10.15
2022-11-17T20:37:43.000Z,9.85
2022-11-17T20:42:42.301Z,9.20
2022-11-17T20:47:41.205Z,9.70
2022-11-17T20:52:40.512Z,9.60
2022-11-17T20:57:40.610Z,8.75
2022-11-17T21:02:39.328Z,10.77
2022-11-17T21:07:38.923Z,9.48
2022-11-17T21:12:37.730Z,15.88
2022-11-17T21:17:55.377Z,17.63
2022-11-17T21:22:54.091Z,7.50
2022-11-17T21:27:53.004Z,8.35
2022-11-17T21:32:53.167Z,14.15
2022-11-17T21:37:51.987Z,9.48
2022-11-17T21:42:50.748Z,10.48
2022-11-17T21:47:49.551Z,7.70
2022-11-17T21:52:49.661Z,7.47
2022-11-17T21:57:51.424Z,8.43
2022-11-17T22:02:50.241Z,9.13
2022-11-17T22:07:50.408Z,8.88
2022-11-17T22:12:49.201Z,8.20
2022-11-17T22:17:48.726Z,8.68
2022-11-17T22:22:49.227Z,8.57
2022-11-17T22:27:49.466Z,9.15
2022-11-17T22:32:48.275Z,8.85
2022-11-17T22:37:47.604Z,9.05
2022-11-17T22:42:46.344Z,8.18
2022-11-17T22:47:46.527Z,9.65
2022-11-17T22:52:45.231Z,9.35
2022-11-17T22:57:44.401Z,8.32
2022-11-17T23:02:43.036Z,10.00
2022-11-17T23:07:43.223Z,9.00
2022-11-17T23:12:42.318Z,9.18
2022-11-17T23:17:42.138Z,9.98
2022-11-17T23:22:42.221Z,8.43
2022-11-17T23:27:40.893Z,9.57
2022-11-17T23:32:39.607Z,16.02
2022-11-17T23:37:39.003Z,17.58
2022-11-17T23:42:43.109Z,18.00
2022-11-17T23:47:42.192Z,14.48
2022-11-17T23:52:40.937Z,11.20
2022-11-17T23:57:41.193Z,10.40
